Terminal Aerodrome Forecast
Issued by NWS

Home | Current Version | Previous Version | Text Only | Print | Product List | Glossary On
Versions: 1 2 3 4 5 6 7 8 9 10 11 12
000
FTUS43 KSGF 301726
TAFJLN
TAF
KJLN 301726Z 3018/3118 00000KT P6SM FEW027
     FM302000 06005KT P6SM SCT200
     FM310700 VRB03KT P6SM BKN250 PROB30 3107/3111 4SM -TSRA
      OVC040CB
     FM311200 VRB03KT P6SM VCTS BKN050CB=

USA.gov is the U.S. government's official web portal to all federal, state and local government web resources and services.